Time;durP1;ratioP1;P1;durP2;ratioP2;P2;SDS_P1;SDS_P2;PMS_P1;PMS_P2;Temp;Humidity;BMP_temperature;BMP_pressure;BME280_temperature;BME280_humidity;BME280_pressure;Samples;Min_cycle;Max_cycle;Signal;HPM_P1;HPM_P2
2022/10/08 00:00:55;;;;;;;7.63;2.20;;;8.70;99.90;;;;;;6247599;22;20245;-42
2022/10/08 00:03:24;;;;;;;8.73;2.87;;;8.70;99.90;;;;;;6245608;23;20155;-45
2022/10/08 00:06:11;;;;;;;5.67;2.00;;;8.60;99.90;;;;;;6247598;22;20163;-45
2022/10/08 00:08:38;;;;;;;4.40;2.07;;;8.60;99.90;;;;;;6247871;22;20222;-42
2022/10/08 00:11:08;;;;;;;5.73;2.20;;;8.60;99.90;;;;;;6247369;22;20160;-43
2022/10/08 00:13:39;;;;;;;8.83;2.10;;;8.60;99.90;;;;;;6247347;22;20188;-44
2022/10/08 00:16:21;;;;;;;4.10;1.63;;;8.60;99.90;;;;;;6247031;22;20204;-44
2022/10/08 00:18:48;;;;;;;7.03;2.07;;;8.60;99.90;;;;;;6253104;22;20151;-45
2022/10/08 00:21:21;;;;;;;8.00;2.47;;;8.60;99.90;;;;;;6253567;22;20518;-41
2022/10/08 00:23:49;;;;;;;4.10;2.07;;;8.60;99.90;;;;;;6247733;22;20157;-42
2022/10/08 00:26:17;;;;;;;9.73;2.40;;;8.60;99.90;;;;;;6247431;22;20156;-39
2022/10/08 00:28:45;;;;;;;4.23;2.07;;;8.70;99.90;;;;;;6247389;22;20606;-40
2022/10/08 00:31:16;;;;;;;3.70;2.10;;;8.70;99.90;;;;;;6248253;22;20156;-40
2022/10/08 00:33:41;;;;;;;6.97;2.10;;;8.70;99.90;;;;;;6249918;22;20460;-37
2022/10/08 00:36:10;;;;;;;13.63;2.47;;;8.80;99.90;;;;;;6250133;22;20291;-39
2022/10/08 00:38:37;;;;;;;6.60;1.93;;;8.80;99.90;;;;;;6249424;22;20224;-40
2022/10/08 00:41:05;;;;;;;7.83;2.03;;;8.80;99.90;;;;;;6246502;23;20487;-40
2022/10/08 00:43:45;;;;;;;5.93;1.90;;;8.90;99.90;;;;;;6247413;22;20153;-41
2022/10/08 00:46:43;;;;;;;6.30;2.40;;;9.00;99.90;;;;;;6247353;22;20164;-40
2022/10/08 00:49:10;;;;;;;9.53;2.67;;;9.00;99.90;;;;;;6235220;23;20155;-42
2022/10/08 00:51:41;;;;;;;7.87;2.33;;;9.10;99.90;;;;;;6246859;22;20156;-37
2022/10/08 00:54:06;;;;;;;6.63;2.17;;;9.10;99.90;;;;;;6246858;22;20150;-40
2022/10/08 00:56:36;;;;;;;8.40;2.03;;;9.10;99.90;;;;;;6246603;22;20219;-41
2022/10/08 00:59:02;;;;;;;9.33;2.43;;;9.20;99.90;;;;;;6246990;22;20162;-39
2022/10/08 01:01:28;;;;;;;9.47;1.93;;;9.20;99.90;;;;;;6246942;22;20161;-42
2022/10/08 01:03:55;;;;;;;9.57;1.73;;;9.20;99.90;;;;;;6245276;23;20156;-40
2022/10/08 01:06:45;;;;;;;9.47;2.20;;;9.20;99.90;;;;;;6245230;23;20162;-42
2022/10/08 01:09:19;;;;;;;7.23;1.67;;;9.30;99.90;;;;;;6247221;22;20153;-41
2022/10/08 01:12:16;;;;;;;6.53;2.33;;;9.30;99.90;;;;;;6246825;22;20185;-42
2022/10/08 01:14:59;;;;;;;6.57;2.00;;;9.40;99.90;;;;;;6247961;22;20228;-38
2022/10/08 01:17:30;;;;;;;7.67;2.17;;;9.50;99.90;;;;;;6246613;22;20184;-38
2022/10/08 01:20:57;;;;;;;10.20;2.17;;;9.50;99.90;;;;;;6246971;22;20690;-39
2022/10/08 01:23:56;;;;;;;8.70;2.20;;;9.50;99.90;;;;;;6153927;23;20157;-41
2022/10/08 01:26:46;;;;;;;7.50;1.93;;;9.40;99.90;;;;;;6246407;23;20559;-37
2022/10/08 01:29:21;;;;;;;8.87;2.10;;;9.40;99.90;;;;;;6246895;23;20474;-39
2022/10/08 01:31:51;;;;;;;7.83;1.67;;;9.50;99.90;;;;;;6244968;23;20151;-42
2022/10/08 01:34:31;;;;;;;4.80;1.87;;;9.50;99.90;;;;;;6246645;22;20661;-46
2022/10/08 01:36:58;;;;;;;6.63;2.10;;;9.40;99.90;;;;;;6246517;22;20188;-43
2022/10/08 01:39:30;;;;;;;7.93;2.23;;;9.40;99.90;;;;;;6245961;22;20636;-43
2022/10/08 01:41:57;;;;;;;6.57;2.23;;;9.40;99.90;;;;;;6246802;22;20148;-43
2022/10/08 01:44:46;;;;;;;7.73;1.97;;;9.50;99.90;;;;;;6246269;22;20598;-42
2022/10/08 01:47:17;;;;;;;6.60;1.80;;;9.40;99.90;;;;;;6246642;22;20553;-44
2022/10/08 01:49:55;;;;;;;8.77;2.17;;;9.50;99.90;;;;;;6244932;23;20151;-44
2022/10/08 01:52:30;;;;;;;11.73;2.63;;;9.50;99.90;;;;;;6247429;22;20185;-45
2022/10/08 01:55:03;;;;;;;7.13;2.33;;;9.60;99.90;;;;;;6246553;22;20151;-41
2022/10/08 01:57:31;;;;;;;6.80;2.40;;;9.60;99.90;;;;;;6245786;22;20270;-43
2022/10/08 02:00:05;;;;;;;8.37;1.87;;;9.60;99.90;;;;;;6246470;22;20164;-43
2022/10/08 02:02:30;;;;;;;6.60;1.90;;;9.60;99.90;;;;;;6246787;22;20441;-44
2022/10/08 02:04:56;;;;;;;12.43;2.43;;;9.60;99.90;;;;;;6246495;22;20186;-43
2022/10/08 02:07:27;;;;;;;8.77;1.67;;;9.70;99.90;;;;;;6246433;22;20176;-44
2022/10/08 02:10:10;;;;;;;9.60;1.60;;;9.70;99.90;;;;;;6246853;22;20247;-44
2022/10/08 02:12:39;;;;;;;7.30;1.80;;;9.80;99.90;;;;;;6246438;22;20144;-43
2022/10/08 02:15:06;;;;;;;9.07;2.17;;;9.80;99.90;;;;;;6246455;22;20164;-43
2022/10/08 02:17:53;;;;;;;11.50;1.97;;;9.80;99.90;;;;;;6245726;22;20223;-43
2022/10/08 02:20:29;;;;;;;5.73;1.70;;;9.90;99.90;;;;;;6246072;22;20140;-44
2022/10/08 02:23:16;;;;;;;7.43;1.80;;;9.90;99.90;;;;;;6246373;22;20157;-42
2022/10/08 02:25:56;;;;;;;7.93;1.60;;;9.90;99.90;;;;;;6246374;22;20523;-43
2022/10/08 02:28:34;;;;;;;5.67;1.90;;;9.90;99.90;;;;;;6246308;22;20187;-45
2022/10/08 02:31:12;;;;;;;11.03;2.37;;;10.00;99.90;;;;;;6244533;23;20148;-44
2022/10/08 02:33:47;;;;;;;5.23;1.87;;;10.00;99.90;;;;;;6246066;22;20141;-43
2022/10/08 02:36:16;;;;;;;7.10;2.20;;;10.10;99.90;;;;;;6245995;22;20179;-43
2022/10/08 02:39:02;;;;;;;5.53;1.97;;;10.20;99.90;;;;;;6244257;23;20248;-45
2022/10/08 02:41:32;;;;;;;9.17;2.07;;;10.30;99.90;;;;;;6244249;23;20156;-43
2022/10/08 02:44:01;;;;;;;6.27;2.00;;;10.30;99.90;;;;;;6246055;22;20152;-40
2022/10/08 02:46:32;;;;;;;9.63;2.30;;;10.40;99.90;;;;;;6246066;22;20172;-39
2022/10/08 02:49:13;;;;;;;8.33;1.83;;;10.40;99.90;;;;;;6246570;22;20142;-42
2022/10/08 02:51:41;;;;;;;6.97;2.03;;;10.50;99.90;;;;;;6244520;23;20319;-42
2022/10/08 02:54:09;;;;;;;9.37;2.03;;;10.50;99.90;;;;;;6245882;22;20160;-42
2022/10/08 02:56:41;;;;;;;11.17;2.30;;;10.60;99.90;;;;;;6246296;22;20193;-38
2022/10/08 02:59:09;;;;;;;8.33;2.20;;;10.70;99.90;;;;;;6246170;22;20146;-41
2022/10/08 03:01:42;;;;;;;9.20;1.73;;;10.80;99.90;;;;;;6246054;22;20148;-41
2022/10/08 03:04:09;;;;;;;7.50;2.30;;;10.80;99.90;;;;;;6246390;22;20290;-42
2022/10/08 03:06:35;;;;;;;10.73;1.83;;;10.90;99.90;;;;;;6246107;22;20619;-41
2022/10/08 03:09:05;;;;;;;7.90;2.23;;;10.90;99.90;;;;;;6245948;23;20243;-42
2022/10/08 03:11:32;;;;;;;6.40;1.80;;;11.00;99.90;;;;;;6248098;22;20488;-42
2022/10/08 03:14:01;;;;;;;6.13;1.67;;;11.00;99.90;;;;;;6248936;22;20160;-41
2022/10/08 03:16:37;;;;;;;4.83;1.87;;;11.10;99.90;;;;;;6247653;22;20645;-42
2022/10/08 03:19:03;;;;;;;8.00;2.00;;;11.20;99.90;;;;;;6247800;22;20149;-40
2022/10/08 03:21:30;;;;;;;10.37;2.30;;;11.20;99.90;;;;;;6248363;22;20152;-41
2022/10/08 03:23:55;;;;;;;7.47;1.70;;;11.30;99.90;;;;;;6248918;22;20162;-40
2022/10/08 03:26:21;;;;;;;7.47;1.80;;;11.30;99.90;;;;;;6247903;22;20153;-42
2022/10/08 03:28:47;;;;;;;8.93;1.80;;;11.30;99.90;;;;;;6248340;22;20158;-41
2022/10/08 03:31:12;;;;;;;7.53;1.77;;;11.30;99.90;;;;;;6247198;23;20172;-40
2022/10/08 03:33:38;;;;;;;7.17;1.80;;;11.40;99.90;;;;;;6247725;22;20154;-38
2022/10/08 03:36:05;;;;;;;7.63;1.97;;;11.30;99.90;;;;;;6247911;22;20185;-38
2022/10/08 03:38:33;;;;;;;9.97;3.00;;;11.40;99.90;;;;;;6245851;23;20158;-40
2022/10/08 03:40:58;;;;;;;8.50;2.07;;;11.40;99.90;;;;;;6245942;23;20152;-40
2022/10/08 03:43:32;;;;;;;5.73;2.00;;;11.40;99.90;;;;;;6247385;22;20202;-38
2022/10/08 03:45:58;;;;;;;7.47;1.97;;;11.40;99.90;;;;;;6245964;23;20147;-38
2022/10/08 03:48:24;;;;;;;9.17;2.03;;;11.40;99.90;;;;;;6245924;23;20220;-39
2022/10/08 03:50:55;;;;;;;7.60;1.93;;;11.40;99.90;;;;;;6247725;22;20159;-40
2022/10/08 03:53:22;;;;;;;6.23;1.97;;;11.30;99.90;;;;;;6247396;22;20166;-37
2022/10/08 03:55:48;;;;;;;6.63;1.80;;;11.40;99.90;;;;;;6247431;22;20178;-40
2022/10/08 03:58:14;;;;;;;6.40;1.70;;;11.40;99.90;;;;;;6247631;22;20179;-46
2022/10/08 04:00:39;;;;;;;7.07;2.20;;;11.40;99.90;;;;;;6249723;22;20205;-46
2022/10/08 04:03:05;;;;;;;10.03;2.17;;;11.40;99.90;;;;;;6249607;22;20238;-45
2022/10/08 04:05:30;;;;;;;7.13;1.90;;;11.40;99.90;;;;;;6248981;22;20153;-47
2022/10/08 04:07:56;;;;;;;6.67;2.10;;;11.40;99.90;;;;;;6249390;22;20174;-44
2022/10/08 04:10:22;;;;;;;5.00;1.70;;;11.40;99.90;;;;;;6249296;22;20153;-46
2022/10/08 04:12:48;;;;;;;9.83;2.40;;;11.40;99.90;;;;;;6250265;22;20152;-47
2022/10/08 04:15:14;;;;;;;5.87;1.87;;;11.30;99.90;;;;;;6251226;22;20155;-47
2022/10/08 04:17:40;;;;;;;6.17;1.93;;;11.30;99.90;;;;;;6251052;22;20245;-45
2022/10/08 04:20:06;;;;;;;6.90;2.13;;;11.30;99.90;;;;;;6249484;23;20564;-46
2022/10/08 04:22:32;;;;;;;11.17;2.00;;;11.30;99.90;;;;;;6250594;22;20147;-46
2022/10/08 04:24:58;;;;;;;6.57;2.17;;;11.30;99.90;;;;;;6248574;23;20604;-48
2022/10/08 04:27:24;;;;;;;8.30;2.20;;;11.30;99.90;;;;;;6249871;22;20178;-47
2022/10/08 04:29:50;;;;;;;7.13;2.10;;;11.30;99.90;;;;;;6250355;22;20230;-43
2022/10/08 04:32:16;;;;;;;11.60;2.30;;;11.20;99.90;;;;;;6253687;22;20150;-46
2022/10/08 04:34:42;;;;;;;6.87;2.60;;;11.30;99.90;;;;;;6249844;22;20487;-47
2022/10/08 04:37:08;;;;;;;4.70;2.00;;;11.20;99.90;;;;;;6249335;22;20714;-47
2022/10/08 04:39:34;;;;;;;7.70;2.10;;;11.30;99.90;;;;;;6249412;22;20193;-44
2022/10/08 04:42:00;;;;;;;6.50;2.40;;;11.30;99.90;;;;;;6249908;22;20155;-46
2022/10/08 04:44:26;;;;;;;7.20;2.30;;;11.30;99.90;;;;;;6248796;23;20224;-46
2022/10/08 04:46:51;;;;;;;5.70;2.47;;;11.30;99.90;;;;;;6249927;22;20178;-46
2022/10/08 04:49:18;;;;;;;6.47;2.83;;;11.30;99.90;;;;;;6249441;23;20162;-44
2022/10/08 04:51:50;;;;;;;7.53;3.07;;;11.30;99.90;;;;;;6249010;23;20196;-44
2022/10/08 04:54:16;;;;;;;8.77;3.00;;;11.30;99.90;;;;;;6250766;22;20326;-45
2022/10/08 04:56:41;;;;;;;11.60;3.30;;;11.30;99.90;;;;;;6250981;22;20661;-45
2022/10/08 04:59:07;;;;;;;10.33;2.83;;;11.30;99.90;;;;;;6249623;23;20276;-45
2022/10/08 05:01:33;;;;;;;9.20;2.67;;;11.30;99.90;;;;;;6250504;22;20162;-46
2022/10/08 05:03:59;;;;;;;10.63;3.40;;;11.20;99.90;;;;;;6251445;22;20158;-44
2022/10/08 05:06:27;;;;;;;6.63;2.60;;;11.30;99.90;;;;;;6251009;22;20162;-44
2022/10/08 05:08:53;;;;;;;10.23;3.17;;;11.30;99.90;;;;;;6249162;23;20158;-45
2022/10/08 05:11:23;;;;;;;8.63;2.80;;;11.30;99.90;;;;;;6250940;22;20158;-46
2022/10/08 05:13:50;;;;;;;5.77;2.97;;;11.30;99.90;;;;;;6251670;22;20161;-47
2022/10/08 05:16:17;;;;;;;7.20;2.50;;;11.30;99.90;;;;;;6251111;22;20628;-44
2022/10/08 05:18:42;;;;;;;5.97;2.87;;;11.30;99.90;;;;;;6249667;23;20227;-47
2022/10/08 05:21:11;;;;;;;5.43;2.70;;;11.30;99.90;;;;;;6251681;22;20605;-43
2022/10/08 05:23:37;;;;;;;6.57;3.13;;;11.30;99.90;;;;;;6251074;22;20177;-45
2022/10/08 05:26:21;;;;;;;6.60;2.67;;;11.30;99.90;;;;;;6250625;22;20158;-46
2022/10/08 05:28:48;;;;;;;4.23;2.83;;;11.30;99.90;;;;;;6251016;22;20147;-46
2022/10/08 05:31:14;;;;;;;4.67;2.97;;;11.30;99.90;;;;;;6251116;22;20159;-45
2022/10/08 05:33:40;;;;;;;7.83;3.17;;;11.30;99.90;;;;;;6251467;22;20158;-44
2022/10/08 05:36:14;;;;;;;6.30;4.30;;;11.30;99.90;;;;;;6249706;23;20628;-46
2022/10/08 05:38:42;;;;;;;8.37;3.53;;;11.30;99.90;;;;;;6250874;22;20601;-46
2022/10/08 05:41:14;;;;;;;7.50;3.17;;;11.40;99.90;;;;;;6251120;22;20138;-44
2022/10/08 05:43:40;;;;;;;11.77;3.73;;;11.40;99.90;;;;;;6250927;23;20159;-45
2022/10/08 05:46:06;;;;;;;4.73;3.07;;;11.40;99.90;;;;;;6249321;23;20281;-45
2022/10/08 05:48:34;;;;;;;8.57;3.50;;;11.40;99.90;;;;;;6251215;22;20151;-46
2022/10/08 05:51:08;;;;;;;9.87;3.97;;;11.40;99.90;;;;;;6250824;22;20211;-45
2022/10/08 05:53:41;;;;;;;9.53;4.13;;;11.40;99.90;;;;;;6250886;22;20234;-46
2022/10/08 05:56:09;;;;;;;9.03;4.37;;;11.40;99.90;;;;;;6251419;22;20171;-44
2022/10/08 05:58:38;;;;;;;9.17;4.33;;;11.40;99.90;;;;;;6249710;23;20158;-43
2022/10/08 06:01:15;;;;;;;10.07;4.27;;;11.40;99.90;;;;;;6251194;22;20155;-46
2022/10/08 06:03:41;;;;;;;7.33;4.80;;;11.40;99.90;;;;;;6250885;22;20138;-47
2022/10/08 06:06:10;;;;;;;7.27;4.63;;;11.40;99.90;;;;;;6250762;22;20155;-44
2022/10/08 06:08:37;;;;;;;8.13;4.27;;;11.40;99.90;;;;;;6249213;23;20173;-45
2022/10/08 06:11:04;;;;;;;8.83;4.73;;;11.50;99.90;;;;;;6251011;22;20540;-45
2022/10/08 06:13:30;;;;;;;11.20;4.90;;;11.50;99.90;;;;;;6251136;22;20154;-46
2022/10/08 06:15:58;;;;;;;9.43;4.10;;;11.50;99.90;;;;;;6251157;22;20187;-46
2022/10/08 06:18:26;;;;;;;9.43;4.37;;;11.50;99.90;;;;;;6250522;22;20182;-46
2022/10/08 06:20:53;;;;;;;11.70;4.33;;;11.50;99.90;;;;;;6250091;23;20159;-45
2022/10/08 06:23:25;;;;;;;13.63;4.97;;;11.60;99.90;;;;;;6249149;23;20158;-45
2022/10/08 06:25:51;;;;;;;8.13;4.47;;;11.50;99.90;;;;;;6251091;22;20520;-43
2022/10/08 06:28:17;;;;;;;10.30;4.43;;;11.60;99.90;;;;;;6253139;22;20183;-46
2022/10/08 06:30:44;;;;;;;9.17;5.00;;;11.60;99.90;;;;;;6250404;22;20162;-43
2022/10/08 06:33:10;;;;;;;7.60;4.20;;;11.60;99.90;;;;;;6250267;22;20159;-44
2022/10/08 06:35:36;;;;;;;6.60;4.50;;;11.60;99.90;;;;;;6250460;22;20189;-45
2022/10/08 06:38:38;;;;;;;10.83;4.10;;;11.60;99.90;;;;;;6251516;22;20534;-43
2022/10/08 06:41:05;;;;;;;10.43;4.63;;;11.70;99.90;;;;;;6203581;23;20204;-44
2022/10/08 06:43:30;;;;;;;13.50;4.63;;;11.70;99.90;;;;;;6251496;22;20592;-46
2022/10/08 06:45:58;;;;;;;8.00;4.87;;;11.70;99.90;;;;;;6252816;22;20177;-46
2022/10/08 06:48:34;;;;;;;13.67;4.83;;;11.80;99.90;;;;;;6250316;23;20186;-45
2022/10/08 06:51:12;;;;;;;12.67;5.10;;;11.80;99.90;;;;;;6252184;23;20181;-46
2022/10/08 06:53:39;;;;;;;11.90;5.53;;;11.80;99.90;;;;;;6252085;23;20143;-44
2022/10/08 06:56:18;;;;;;;15.57;6.00;;;11.80;99.90;;;;;;6253422;22;20178;-43
2022/10/08 06:58:46;;;;;;;11.50;5.93;;;11.80;99.90;;;;;;6252761;22;20142;-44
2022/10/08 07:01:25;;;;;;;10.30;5.73;;;11.90;99.90;;;;;;6252586;22;20229;-43
2022/10/08 07:03:53;;;;;;;8.50;5.33;;;11.90;99.90;;;;;;6250824;23;20175;-46
2022/10/08 07:06:19;;;;;;;11.23;6.00;;;11.90;99.90;;;;;;6250880;23;20167;-44
2022/10/08 07:08:46;;;;;;;10.57;6.07;;;11.90;99.90;;;;;;6251022;23;20538;-45
2022/10/08 07:11:26;;;;;;;9.43;6.03;;;11.90;99.90;;;;;;6252119;23;20159;-46
2022/10/08 07:13:53;;;;;;;13.67;5.90;;;11.90;99.90;;;;;;6251772;22;20581;-44
2022/10/08 07:16:26;;;;;;;13.77;6.20;;;12.00;99.90;;;;;;6251838;22;20194;-44
2022/10/08 07:18:54;;;;;;;13.57;6.50;;;12.00;99.90;;;;;;6252341;22;20138;-45
2022/10/08 07:21:21;;;;;;;14.50;6.20;;;12.00;99.90;;;;;;6253017;22;20182;-43
2022/10/08 07:23:48;;;;;;;16.10;7.30;;;12.10;99.90;;;;;;6252573;22;20162;-42
2022/10/08 07:26:19;;;;;;;10.07;6.53;;;12.10;99.90;;;;;;6251208;23;20469;-45
2022/10/08 07:28:54;;;;;;;13.33;6.50;;;12.10;99.90;;;;;;6250284;23;20154;-45
2022/10/08 07:31:26;;;;;;;14.10;7.10;;;12.10;99.90;;;;;;6253249;22;20146;-44
2022/10/08 07:34:13;;;;;;;10.90;6.43;;;12.10;99.90;;;;;;6250615;22;20170;-46
2022/10/08 07:36:40;;;;;;;13.70;6.50;;;12.20;99.90;;;;;;6253001;22;20190;-43
2022/10/08 07:39:09;;;;;;;13.33;7.33;;;12.20;99.90;;;;;;6253467;22;20168;-46
2022/10/08 07:41:45;;;;;;;11.70;7.03;;;12.30;99.90;;;;;;6253170;22;20163;-46
2022/10/08 07:44:25;;;;;;;12.60;6.93;;;12.30;99.90;;;;;;6252333;22;20149;-44
2022/10/08 07:46:56;;;;;;;11.50;6.63;;;12.40;99.90;;;;;;6252262;22;20199;-43
2022/10/08 07:49:21;;;;;;;16.20;6.67;;;12.40;99.90;;;;;;6250869;23;20179;-44
2022/10/08 07:51:47;;;;;;;13.87;6.67;;;12.50;99.90;;;;;;6252538;22;20148;-43
2022/10/08 07:54:15;;;;;;;14.50;6.83;;;12.50;99.90;;;;;;6251659;23;20156;-47
2022/10/08 07:56:41;;;;;;;15.53;7.70;;;12.60;99.90;;;;;;6254001;22;20191;-44
2022/10/08 07:59:07;;;;;;;12.93;6.93;;;12.60;99.90;;;;;;6251633;23;20160;-43
2022/10/08 08:01:33;;;;;;;18.77;7.27;;;12.60;99.90;;;;;;6225969;23;20164;-43
2022/10/08 08:04:05;;;;;;;12.57;7.30;;;12.70;99.90;;;;;;6253119;22;20148;-46
2022/10/08 08:06:32;;;;;;;15.87;8.10;;;12.70;99.90;;;;;;6253932;22;20179;-45
2022/10/08 08:09:01;;;;;;;14.47;7.27;;;12.70;99.90;;;;;;6253913;22;20158;-43
2022/10/08 08:11:27;;;;;;;18.67;8.30;;;12.80;99.90;;;;;;6253222;22;20567;-47
2022/10/08 08:13:53;;;;;;;12.40;7.27;;;12.80;99.90;;;;;;6251811;23;20163;-44
2022/10/08 08:16:21;;;;;;;12.00;7.07;;;12.80;99.90;;;;;;6250944;23;20179;-45
2022/10/08 08:18:50;;;;;;;16.13;7.60;;;12.90;99.90;;;;;;6253332;22;20175;-45
2022/10/08 08:21:19;;;;;;;11.57;6.77;;;13.00;99.90;;;;;;6251029;23;20160;-43
2022/10/08 08:23:48;;;;;;;12.80;7.57;;;13.10;99.90;;;;;;6252929;22;20186;-44
2022/10/08 08:26:16;;;;;;;17.97;7.77;;;13.10;99.90;;;;;;6252712;22;20156;-47
2022/10/08 08:28:42;;;;;;;16.67;7.90;;;13.10;99.90;;;;;;6251702;22;20156;-47
2022/10/08 08:31:12;;;;;;;12.63;7.23;;;13.20;99.90;;;;;;6252631;22;20156;-45
2022/10/08 08:33:38;;;;;;;17.33;8.43;;;13.30;99.90;;;;;;6250955;22;20152;-46
2022/10/08 08:36:04;;;;;;;14.57;7.47;;;13.40;99.90;;;;;;6250499;22;20187;-45
2022/10/08 08:38:33;;;;;;;12.37;7.40;;;13.40;99.90;;;;;;6251182;22;20258;-47
2022/10/08 08:41:19;;;;;;;14.50;7.30;;;13.30;99.90;;;;;;6251154;22;20167;-44
2022/10/08 08:43:45;;;;;;;20.03;7.10;;;13.00;99.90;;;;;;6251065;22;20159;-44
2022/10/08 08:46:16;;;;;;;16.87;8.07;;;13.40;99.90;;;;;;6249314;22;20159;-43
2022/10/08 08:48:44;;;;;;;11.23;7.13;;;13.40;99.90;;;;;;6248695;22;20147;-42
2022/10/08 08:51:10;;;;;;;14.77;7.03;;;13.40;99.90;;;;;;6246858;22;20182;-43
2022/10/08 08:53:36;;;;;;;16.97;7.50;;;13.40;99.90;;;;;;6247187;22;20481;-44
2022/10/08 08:56:05;;;;;;;15.83;6.00;;;13.50;99.90;;;;;;6246746;22;20233;-44
2022/10/08 08:58:39;;;;;;;11.70;6.20;;;13.60;99.90;;;;;;6245063;23;20194;-43
2022/10/08 09:01:07;;;;;;;10.20;6.37;;;13.70;99.90;;;;;;6246800;22;20193;-44
2022/10/08 09:03:51;;;;;;;11.70;6.33;;;13.80;99.90;;;;;;6245093;23;20182;-42
2022/10/08 09:06:21;;;;;;;10.10;6.07;;;13.90;99.90;;;;;;6246792;22;20148;-42
2022/10/08 09:09:23;;;;;;;10.70;6.20;;;14.00;99.90;;;;;;6248442;23;20183;-45
2022/10/08 09:11:49;;;;;;;11.17;5.37;;;14.10;99.90;;;;;;6232970;23;20166;-45
2022/10/08 09:14:30;;;;;;;12.03;5.33;;;14.20;99.90;;;;;;6252047;22;20163;-45
2022/10/08 09:16:56;;;;;;;11.07;4.37;;;14.40;99.90;;;;;;6252252;22;20184;-44
2022/10/08 09:19:22;;;;;;;15.50;4.37;;;14.50;99.90;;;;;;6252100;22;20152;-47
2022/10/08 09:21:47;;;;;;;8.80;4.23;;;14.70;99.90;;;;;;6250033;23;20239;-46
2022/10/08 09:24:14;;;;;;;10.33;4.30;;;14.80;99.90;;;;;;6252107;22;20155;-44
2022/10/08 09:26:40;;;;;;;10.50;4.03;;;15.00;99.90;;;;;;6251768;22;20176;-45
2022/10/08 09:29:06;;;;;;;9.03;3.23;;;15.10;99.90;;;;;;6250328;22;20153;-46
2022/10/08 09:31:40;;;;;;;11.67;3.03;;;15.30;99.90;;;;;;6250723;22;20159;-46
2022/10/08 09:34:09;;;;;;;7.57;2.47;;;15.30;99.90;;;;;;6251281;22;20175;-44
2022/10/08 10:31:42;;;;;;;11.87;2.07;;;16.30;99.90;;;;;;6247462;23;20179;-47
2022/10/08 10:34:24;;;;;;;6.93;1.97;;;16.20;99.90;;;;;;6247296;22;20569;-46
2022/10/08 10:37:00;;;;;;;8.53;2.40;;;16.10;99.90;;;;;;6247617;22;20183;-45
2022/10/08 10:39:41;;;;;;;6.03;1.70;;;16.00;99.90;;;;;;6247905;22;20159;-46
2022/10/08 10:42:18;;;;;;;10.53;2.40;;;16.10;99.90;;;;;;6248423;22;20144;-44
2022/10/08 10:44:55;;;;;;;10.77;2.23;;;16.10;99.90;;;;;;6247698;22;20139;-46
2022/10/08 10:47:23;;;;;;;5.90;2.00;;;16.20;99.90;;;;;;6246091;23;20224;-48
2022/10/08 10:49:50;;;;;;;6.23;1.70;;;16.20;99.90;;;;;;6247383;22;20156;-45
2022/10/08 10:52:18;;;;;;;7.23;1.57;;;16.10;99.90;;;;;;6248576;22;20594;-45
2022/10/08 10:55:21;;;;;;;4.13;1.40;;;16.20;99.90;;;;;;6248137;22;20159;-45
2022/10/08 10:58:05;;;;;;;5.97;1.40;;;16.40;99.90;;;;;;6247445;22;20218;-45
2022/10/08 11:00:48;;;;;;;3.23;1.33;;;16.50;99.90;;;;;;6248402;22;20136;-47
2022/10/08 11:03:43;;;;;;;6.17;1.23;;;16.70;99.90;;;;;;6247813;22;20152;-48
2022/10/08 11:06:27;;;;;;;5.80;1.70;;;16.70;99.90;;;;;;6208949;22;20247;-47
2022/10/08 11:09:09;;;;;;;7.40;1.70;;;16.60;99.90;;;;;;6248167;22;20139;-45
2022/10/08 11:11:35;;;;;;;5.70;1.70;;;16.50;99.90;;;;;;6248018;22;20155;-45
2022/10/08 11:14:37;;;;;;;7.73;1.73;;;16.40;99.90;;;;;;6249016;22;20144;-44
2022/10/08 11:17:23;;;;;;;7.50;1.30;;;16.40;99.90;;;;;;6247746;23;20203;-46
2022/10/08 11:20:09;;;;;;;5.57;1.93;;;16.30;99.90;;;;;;6220624;23;20609;-45
2022/10/08 11:23:08;;;;;;;5.30;1.00;;;16.20;99.90;;;;;;6248182;22;20464;-46
2022/10/08 11:25:46;;;;;;;4.93;1.10;;;16.00;99.90;;;;;;6246314;23;20160;-46
2022/10/08 11:28:29;;;;;;;3.73;1.33;;;16.00;99.90;;;;;;6245811;23;20179;-48
2022/10/08 11:31:30;;;;;;;4.50;1.50;;;16.00;99.90;;;;;;6249995;22;20151;-47
2022/10/08 11:34:42;;;;;;;3.47;1.23;;;16.10;99.90;;;;;;6249781;22;20171;-45
2022/10/08 11:37:27;;;;;;;4.03;1.43;;;16.20;99.90;;;;;;6249369;22;20203;-41
2022/10/08 11:40:30;;;;;;;3.13;0.90;;;16.40;99.90;;;;;;6247920;23;20510;-46
2022/10/08 11:43:13;;;;;;;4.50;1.13;;;16.40;99.90;;;;;;6247686;23;20616;-45
2022/10/08 11:45:42;;;;;;;3.40;1.23;;;16.40;99.90;;;;;;6250029;22;20593;-46
2022/10/08 11:48:32;;;;;;;3.60;1.27;;;16.50;99.90;;;;;;6248683;23;20190;-40
2022/10/08 11:51:32;;;;;;;3.33;1.20;;;16.60;99.90;;;;;;6247246;23;20164;-43
2022/10/08 11:54:12;;;;;;;2.97;0.93;;;16.70;99.90;;;;;;6184627;23;20163;-47
2022/10/08 12:04:00;;;;;;;2.33;1.03;;;16.90;99.90;;;;;;6250858;22;20151;-46
2022/10/08 12:10:36;;;;;;;5.07;1.00;;;17.20;99.90;;;;;;6160910;23;20172;-47
2022/10/08 12:16:56;;;;;;;3.07;1.00;;;17.50;99.90;;;;;;6158968;23;20184;-46
2022/10/08 12:46:55;;;;;;;3.73;0.93;;;17.60;99.90;;;;;;6099534;23;20257;-48
2022/10/08 12:49:38;;;;;;;4.43;1.20;;;17.40;99.90;;;;;;6139204;23;20207;-47
2022/10/08 12:52:13;;;;;;;3.90;1.00;;;17.30;99.90;;;;;;6248120;23;20175;-45
2022/10/08 12:54:46;;;;;;;2.27;0.93;;;17.20;99.90;;;;;;6249594;22;20255;-47
2022/10/08 12:57:17;;;;;;;5.97;1.10;;;17.10;99.90;;;;;;6249078;22;20184;-45
2022/10/08 12:59:45;;;;;;;4.80;1.20;;;17.10;99.90;;;;;;6249558;22;20136;-46
2022/10/08 13:02:40;;;;;;;4.63;1.40;;;17.00;99.90;;;;;;6249889;22;20190;-46
2022/10/08 13:05:29;;;;;;;3.57;1.03;;;16.90;99.90;;;;;;6248100;23;20181;-47
2022/10/08 13:07:55;;;;;;;5.20;0.90;;;16.70;99.90;;;;;;6247907;23;20187;-46
2022/10/08 13:10:27;;;;;;;4.60;1.00;;;16.60;99.90;;;;;;6249729;22;20159;-45
2022/10/08 13:13:26;;;;;;;2.97;1.10;;;16.40;99.90;;;;;;6250899;22;20151;-45
2022/10/08 13:15:58;;;;;;;2.63;1.17;;;16.30;99.90;;;;;;6249252;23;20167;-46
2022/10/08 13:25:34;;;;;;;3.47;1.00;;;16.40;99.90;;;;;;6247728;22;20203;-39
2022/10/08 13:28:11;;;;;;;4.07;1.10;;;16.50;99.90;;;;;;6247236;22;20245;-40
2022/10/08 13:30:37;;;;;;;5.60;0.87;;;16.60;99.90;;;;;;6247152;22;20143;-43
2022/10/08 13:33:08;;;;;;;3.87;0.97;;;16.60;99.90;;;;;;6246651;22;20159;-42
2022/10/08 13:35:34;;;;;;;2.23;0.70;;;16.70;99.90;;;;;;6246919;22;20223;-43
2022/10/08 13:38:03;;;;;;;3.03;1.10;;;16.70;99.90;;;;;;6246702;22;20723;-40
2022/10/08 13:40:29;;;;;;;3.43;0.90;;;16.70;99.90;;;;;;6247428;22;20156;-41
2022/10/08 13:42:57;;;;;;;2.40;0.90;;;16.80;99.90;;;;;;6246903;22;20155;-44
2022/10/08 13:45:25;;;;;;;2.77;0.93;;;16.70;99.90;;;;;;6245052;23;20163;-47
2022/10/08 13:47:52;;;;;;;2.60;0.90;;;16.70;99.90;;;;;;6246632;22;20250;-46
2022/10/08 13:50:19;;;;;;;4.27;1.20;;;16.60;99.90;;;;;;6244844;23;20164;-47
2022/10/08 13:52:52;;;;;;;5.50;0.93;;;16.60;99.90;;;;;;6246606;22;20187;-45
2022/10/08 13:55:27;;;;;;;5.33;1.30;;;16.50;99.90;;;;;;6246950;22;20169;-46
2022/10/08 13:57:54;;;;;;;2.57;1.00;;;16.60;99.90;;;;;;6246548;22;20211;-44
2022/10/08 14:00:19;;;;;;;4.00;1.07;;;16.60;99.90;;;;;;6247015;22;20472;-45
2022/10/08 14:02:45;;;;;;;2.03;0.80;;;16.70;99.90;;;;;;6247066;22;20148;-47
2022/10/08 14:05:11;;;;;;;2.07;0.83;;;16.80;99.90;;;;;;6247135;22;20183;-46
2022/10/08 14:07:37;;;;;;;2.30;0.80;;;16.90;99.90;;;;;;6247331;22;20179;-46
2022/10/08 14:10:03;;;;;;;5.77;0.90;;;17.00;99.90;;;;;;6247033;22;20159;-45
2022/10/08 14:12:32;;;;;;;4.13;0.93;;;17.10;99.90;;;;;;6246669;22;20537;-45
2022/10/08 14:14:58;;;;;;;2.47;0.90;;;17.10;99.90;;;;;;6244790;23;20187;-45
2022/10/08 14:17:24;;;;;;;2.77;0.90;;;17.10;99.90;;;;;;6246239;22;20269;-48
2022/10/08 14:19:50;;;;;;;2.60;0.70;;;17.10;99.90;;;;;;6246321;22;20602;-46
2022/10/08 14:22:16;;;;;;;3.97;0.80;;;17.20;99.90;;;;;;6244760;23;20230;-45
2022/10/08 14:24:42;;;;;;;6.43;1.10;;;17.30;99.90;;;;;;6246640;22;20217;-44
2022/10/08 14:27:08;;;;;;;3.10;0.70;;;17.30;99.90;;;;;;6246213;22;20253;-43
2022/10/08 14:29:34;;;;;;;3.67;0.90;;;17.40;99.90;;;;;;6246312;22;20155;-46
2022/10/08 14:32:00;;;;;;;2.53;0.90;;;17.50;99.90;;;;;;6247786;22;20163;-44
2022/10/08 14:34:25;;;;;;;1.93;0.63;;;17.60;99.90;;;;;;6247228;22;20612;-44
2022/10/08 14:36:54;;;;;;;5.07;1.00;;;17.60;99.90;;;;;;6246356;22;20183;-44
2022/10/08 14:39:24;;;;;;;2.00;0.83;;;17.60;99.90;;;;;;6246356;22;20541;-47
2022/10/08 14:41:50;;;;;;;5.63;1.10;;;17.60;99.90;;;;;;6246862;22;20140;-45
2022/10/08 14:44:16;;;;;;;5.80;1.03;;;17.60;99.90;;;;;;6246265;22;20198;-45
2022/10/08 14:46:46;;;;;;;2.50;0.83;;;17.70;99.90;;;;;;6246370;22;20179;-45
2022/10/08 14:49:12;;;;;;;3.90;0.97;;;17.60;99.90;;;;;;6246286;22;20203;-43
2022/10/08 14:51:38;;;;;;;1.47;0.63;;;17.60;99.90;;;;;;6246766;22;20597;-45
2022/10/08 14:54:08;;;;;;;1.53;0.87;;;17.60;99.90;;;;;;6246488;22;20163;-45